createdAt,value
2023-04-21T00:00:11.339Z,5.52
2023-04-21T00:02:41.721Z,5.61
2023-04-21T00:05:12.712Z,5.53
2023-04-21T00:07:41.857Z,5.52
2023-04-21T00:10:13.088Z,5.38
2023-04-21T00:12:41.919Z,5.21
2023-04-21T00:15:12.913Z,5.16
2023-04-21T00:17:41.849Z,5.20
2023-04-21T00:20:12.204Z,5.18
2023-04-21T00:22:40.893Z,5.24
2023-04-21T00:25:10.500Z,5.31
2023-04-21T00:27:39.233Z,5.37
2023-04-21T00:30:09.823Z,5.41
2023-04-21T00:32:40.531Z,5.42
2023-04-21T00:35:11.057Z,5.31
2023-04-21T00:37:41.727Z,5.42
2023-04-21T00:40:13.808Z,5.47
2023-04-21T00:42:42.918Z,5.49
2023-04-21T00:45:12.602Z,5.51
2023-04-21T00:47:42.909Z,5.36
2023-04-21T00:50:14.185Z,5.36
2023-04-21T00:52:47.086Z,5.24
2023-04-21T00:55:16.967Z,5.24
2023-04-21T00:57:46.314Z,5.33
2023-04-21T01:00:16.741Z,5.33
2023-04-21T01:02:47.302Z,5.36
2023-04-21T01:05:18.295Z,5.37
2023-04-21T01:07:47.220Z,5.37
2023-04-21T01:10:16.258Z,5.38
2023-04-21T01:12:49.053Z,5.38
2023-04-21T01:15:19.088Z,5.37
2023-04-21T01:17:49.986Z,5.15
2023-04-21T01:20:18.767Z,5.00
2023-04-21T01:22:51.295Z,4.94
2023-04-21T01:25:22.824Z,4.82
2023-04-21T01:27:52.176Z,4.89
2023-04-21T01:30:23.276Z,4.98
2023-04-21T01:32:53.152Z,5.01
2023-04-21T01:35:22.293Z,4.99
2023-04-21T01:37:52.358Z,4.78
2023-04-21T01:40:21.613Z,4.71
2023-04-21T01:42:50.356Z,4.66
2023-04-21T01:45:19.030Z,4.86
2023-04-21T01:47:47.806Z,4.94
2023-04-21T01:50:16.668Z,4.95
2023-04-21T01:52:45.439Z,5.01
2023-04-21T01:55:15.994Z,5.04
2023-04-21T01:57:44.711Z,5.04
2023-04-21T02:00:15.184Z,5.05
2023-04-21T02:02:44.060Z,4.91
2023-04-21T02:05:15.079Z,4.76
2023-04-21T02:07:43.862Z,4.61
2023-04-21T02:10:14.275Z,4.62
2023-04-21T02:12:45.258Z,4.62
2023-04-21T02:15:14.186Z,4.57
2023-04-21T02:17:45.028Z,4.50
2023-04-21T02:20:14.581Z,4.33
2023-04-21T02:22:43.336Z,4.55
2023-04-21T02:25:12.217Z,4.66
2023-04-21T02:27:42.700Z,4.68
2023-04-21T02:30:12.087Z,4.73
2023-04-21T02:32:41.059Z,4.65
2023-04-21T02:35:10.918Z,4.62
2023-04-21T02:37:39.803Z,4.67
2023-04-21T02:40:10.606Z,4.68
2023-04-21T02:42:39.317Z,4.73
2023-04-21T02:45:12.374Z,4.69
2023-04-21T02:47:41.157Z,4.53
2023-04-21T02:50:11.036Z,4.36
2023-04-21T02:52:39.949Z,4.25
2023-04-21T02:55:09.873Z,4.26
2023-04-21T02:57:38.670Z,4.41
2023-04-21T03:00:14.028Z,4.47
2023-04-21T03:02:43.142Z,4.47
2023-04-21T03:05:12.783Z,4.44
2023-04-21T03:07:41.388Z,4.17
2023-04-21T03:10:10.284Z,4.25
2023-04-21T03:12:39.064Z,4.37
2023-04-21T03:15:10.215Z,4.40
2023-04-21T03:17:39.820Z,4.39
2023-04-21T03:20:10.873Z,4.44
2023-04-21T03:22:40.457Z,4.45
2023-04-21T03:25:09.445Z,4.47
2023-04-21T03:27:38.396Z,4.49
2023-04-21T03:30:10.475Z,4.47
2023-04-21T03:32:39.158Z,4.42
2023-04-21T03:35:08.361Z,4.45
2023-04-21T03:37:37.086Z,4.28
2023-04-21T03:40:08.674Z,4.36
2023-04-21T03:42:37.700Z,4.38
2023-04-21T03:45:10.827Z,4.39
2023-04-21T03:47:39.669Z,4.38
2023-04-21T03:50:10.173Z,4.33
2023-04-21T03:52:39.683Z,4.23
2023-04-21T03:55:11.923Z,4.12
2023-04-21T03:57:42.208Z,4.15
2023-04-21T04:00:14.922Z,4.19
2023-04-21T04:02:43.999Z,4.16
2023-04-21T04:05:13.280Z,4.07
2023-04-21T04:07:43.009Z,4.04
2023-04-21T04:10:12.228Z,4.12
2023-04-21T04:12:41.205Z,4.08
2023-04-21T04:15:12.375Z,3.91
2023-04-21T04:17:43.484Z,3.95
2023-04-21T04:20:13.073Z,4.03
2023-04-21T04:22:41.943Z,4.11
2023-04-21T04:25:12.856Z,4.12
2023-04-21T04:27:41.751Z,4.08
2023-04-21T04:30:16.374Z,3.94
2023-04-21T04:32:45.770Z,4.01
2023-04-21T04:35:15.547Z,4.04
2023-04-21T04:37:45.637Z,4.02
2023-04-21T04:40:19.760Z,4.13
2023-04-21T04:42:49.015Z,4.16
2023-04-21T04:45:22.275Z,4.22
2023-04-21T04:47:51.635Z,4.24
2023-04-21T04:50:20.457Z,4.26
2023-04-21T04:52:58.821Z,4.29
2023-04-21T04:55:42.258Z,4.35
2023-04-21T04:58:16.233Z,4.38
2023-04-21T05:00:56.660Z,4.38
2023-04-21T05:03:32.341Z,4.40
2023-04-21T05:06:03.654Z,4.44
2023-04-21T05:09:08.560Z,4.48
2023-04-21T05:12:21.636Z,4.45
2023-04-21T05:15:07.617Z,4.51
2023-04-21T05:17:41.408Z,4.56
2023-04-21T05:20:14.997Z,4.58
2023-04-21T05:22:50.078Z,4.61
2023-04-21T05:25:23.306Z,4.56
2023-04-21T05:27:54.030Z,4.53
2023-04-21T05:30:25.872Z,4.58
2023-04-21T05:32:55.915Z,4.61
2023-04-21T05:35:24.788Z,4.68
2023-04-21T05:37:53.872Z,4.77
2023-04-21T05:40:23.304Z,4.78
2023-04-21T05:42:52.686Z,4.82
2023-04-21T05:45:22.054Z,4.89
2023-04-21T05:47:51.342Z,4.95
2023-04-21T05:50:21.891Z,5.04
2023-04-21T05:52:50.859Z,5.02
2023-04-21T05:55:19.972Z,5.09
2023-04-21T05:57:49.116Z,5.16
2023-04-21T06:00:19.501Z,5.21
2023-04-21T06:02:48.876Z,5.28
2023-04-21T06:05:17.895Z,5.36
2023-04-21T06:07:48.184Z,5.47
2023-04-21T06:10:17.251Z,5.44
2023-04-21T06:12:46.166Z,5.57
2023-04-21T06:15:14.908Z,5.69
2023-04-21T06:17:43.672Z,5.78
2023-04-21T06:20:13.784Z,5.86
2023-04-21T06:22:42.427Z,5.97
2023-04-21T06:25:12.741Z,6.05
2023-04-21T06:27:41.454Z,6.15
2023-04-21T06:30:11.110Z,6.25
2023-04-21T06:32:39.876Z,6.34
2023-04-21T06:35:09.608Z,6.43
2023-04-21T06:37:38.559Z,6.53
2023-04-21T06:40:08.799Z,6.66
2023-04-21T06:42:38.899Z,6.77
2023-04-21T06:45:10.822Z,6.87
2023-04-21T06:47:39.731Z,6.99
2023-04-21T06:50:10.139Z,7.11
2023-04-21T06:52:38.818Z,7.21
2023-04-21T06:55:09.085Z,7.32
2023-04-21T06:57:39.154Z,7.43
2023-04-21T07:00:09.763Z,7.54
2023-04-21T07:02:38.530Z,7.65
2023-04-21T07:05:08.188Z,7.75
2023-04-21T07:07:36.893Z,7.86
2023-04-21T07:10:06.264Z,7.98
2023-04-21T07:12:34.982Z,8.10
2023-04-21T07:15:05.945Z,8.18
2023-04-21T07:17:34.666Z,8.32
2023-04-21T07:20:03.814Z,8.44
2023-04-21T07:22:32.453Z,8.54
2023-04-21T07:25:02.232Z,8.69
2023-04-21T07:27:30.954Z,8.81
2023-04-21T07:30:00.029Z,8.99
2023-04-21T07:32:30.207Z,9.10
2023-04-21T07:34:58.945Z,9.21
2023-04-21T07:37:27.615Z,9.45
2023-04-21T07:39:56.280Z,9.62
2023-04-21T07:42:26.821Z,9.75
2023-04-21T07:44:56.191Z,9.86
2023-04-21T07:47:25.069Z,10.13
2023-04-21T07:49:55.228Z,10.32
2023-04-21T07:52:24.414Z,10.51
2023-04-21T07:54:53.638Z,10.74
2023-04-21T07:57:22.365Z,10.97
2023-04-21T07:59:51.320Z,11.13
2023-04-21T08:02:20.170Z,11.35
2023-04-21T08:04:49.063Z,11.50
2023-04-21T08:07:19.285Z,11.62
2023-04-21T08:09:47.962Z,11.86
2023-04-21T08:12:16.684Z,11.93
2023-04-21T08:14:45.478Z,12.04
2023-04-21T08:20:00.058Z,12.28
2023-04-21T08:22:30.161Z,12.47
2023-04-21T08:24:58.871Z,12.51
2023-04-21T08:27:27.602Z,12.69
2023-04-21T08:29:56.327Z,12.70
2023-04-21T08:32:26.545Z,12.82
2023-04-21T08:34:56.544Z,12.95
2023-04-21T08:37:25.250Z,13.18
2023-04-21T08:39:55.368Z,13.28
2023-04-21T08:42:24.055Z,13.39
2023-04-21T08:44:52.776Z,13.49
2023-04-21T08:47:25.457Z,13.61
2023-04-21T08:49:54.626Z,13.85
2023-04-21T08:52:23.390Z,13.98
2023-04-21T08:54:53.328Z,14.10
2023-04-21T08:57:23.410Z,14.21
2023-04-21T08:59:52.095Z,14.31
2023-04-21T09:02:21.122Z,14.51
2023-04-21T09:04:52.499Z,14.70
2023-04-21T09:07:36.063Z,14.72
2023-04-21T09:10:07.196Z,14.87
2023-04-21T09:12:40.876Z,15.01
2023-04-21T09:15:12.859Z,15.19
2023-04-21T09:17:41.555Z,15.32
2023-04-21T09:20:17.655Z,15.50
2023-04-21T09:22:47.233Z,15.69
2023-04-21T09:25:20.423Z,15.95
2023-04-21T09:27:50.573Z,16.17
2023-04-21T09:30:22.763Z,16.28
2023-04-21T09:32:51.662Z,16.57
2023-04-21T09:35:20.668Z,16.61
2023-04-21T09:37:49.369Z,16.77
2023-04-21T09:40:20.234Z,16.94
2023-04-21T09:42:50.755Z,17.11
2023-04-21T09:47:56.779Z,17.34
2023-04-21T09:51:03.699Z,17.43
2023-04-21T09:53:18.129Z,17.53
2023-04-21T09:55:52.915Z,17.70
2023-04-21T09:58:28.710Z,17.82
2023-04-21T10:00:59.675Z,17.89
2023-04-21T10:03:30.376Z,18.05
2023-04-21T10:05:59.793Z,18.11
2023-04-21T10:08:29.265Z,18.20
2023-04-21T10:10:58.950Z,18.30
2023-04-21T10:13:30.021Z,18.37
2023-04-21T10:16:08.102Z,18.53
2023-04-21T10:18:39.465Z,18.70
2023-04-21T10:21:10.735Z,18.85
2023-04-21T10:23:43.505Z,18.90
2023-04-21T10:26:16.411Z,19.00
2023-04-21T10:28:57.645Z,19.11
2023-04-21T10:31:33.103Z,19.30
2023-04-21T10:34:19.513Z,19.51
2023-04-21T10:37:19.752Z,19.53
2023-04-21T10:39:56.053Z,19.66
2023-04-21T10:42:37.110Z,19.56
2023-04-21T10:45:14.301Z,19.83
2023-04-21T10:47:49.229Z,20.12
2023-04-21T10:50:27.000Z,20.38
2023-04-21T10:53:00.461Z,20.51
2023-04-21T10:55:31.362Z,20.53
2023-04-21T10:58:04.542Z,20.58
2023-04-21T11:00:35.047Z,20.56
2023-04-21T11:03:06.343Z,20.49
2023-04-21T11:05:41.012Z,20.54
2023-04-21T11:08:14.090Z,20.62
2023-04-21T11:10:55.784Z,20.80
2023-04-21T11:13:27.036Z,21.01
2023-04-21T11:16:03.748Z,20.75
2023-04-21T11:18:43.792Z,20.86
2023-04-21T11:21:21.553Z,20.35
2023-04-21T11:23:54.380Z,20.47
2023-04-21T11:26:34.862Z,20.38
2023-04-21T11:29:06.097Z,20.18
2023-04-21T11:31:37.609Z,20.47
2023-04-21T11:34:07.468Z,20.74
2023-04-21T11:36:36.660Z,21.38
2023-04-21T11:39:10.130Z,21.71
2023-04-21T11:41:42.207Z,22.16
2023-04-21T11:44:12.047Z,22.62
2023-04-21T11:46:46.969Z,23.09
2023-04-21T11:49:18.519Z,23.16
2023-04-21T11:51:47.604Z,23.27
2023-04-21T11:54:22.081Z,23.13
2023-04-21T11:56:51.141Z,22.59
2023-04-21T11:59:26.040Z,22.74
2023-04-21T12:01:57.210Z,22.70
2023-04-21T12:04:27.593Z,22.53
2023-04-21T12:07:01.555Z,21.95
2023-04-21T12:09:31.376Z,21.89
2023-04-21T12:12:02.706Z,22.37
2023-04-21T12:14:34.921Z,22.11
2023-04-21T12:17:08.326Z,21.63
2023-04-21T12:19:39.675Z,22.11
2023-04-21T12:22:10.333Z,22.84
2023-04-21T12:24:39.813Z,23.20
2023-04-21T12:27:09.415Z,23.07
2023-04-21T12:29:38.729Z,23.08
2023-04-21T12:32:10.308Z,23.25
2023-04-21T12:34:39.259Z,23.25
2023-04-21T12:37:09.075Z,23.54
2023-04-21T12:39:37.918Z,23.52
2023-04-21T12:42:06.953Z,23.76
2023-04-21T12:44:35.673Z,24.16
2023-04-21T12:47:04.546Z,24.24
2023-04-21T12:49:34.659Z,23.53
2023-04-21T12:52:05.712Z,23.14
2023-04-21T12:54:34.899Z,23.44
2023-04-21T12:57:04.346Z,24.13
2023-04-21T12:59:33.586Z,24.96
2023-04-21T13:02:02.458Z,25.35
2023-04-21T13:04:32.500Z,25.61
2023-04-21T13:07:02.957Z,26.08
2023-04-21T13:09:33.101Z,26.38
2023-04-21T13:12:04.824Z,26.60
2023-04-21T13:14:34.268Z,25.59
2023-04-21T13:17:03.552Z,24.85
2023-04-21T13:19:33.920Z,24.91
2023-04-21T13:22:05.598Z,25.74
2023-04-21T13:24:34.665Z,25.96
2023-04-21T13:27:03.586Z,26.74
2023-04-21T13:29:34.598Z,26.82
2023-04-21T13:32:04.876Z,27.75
2023-04-21T13:34:36.069Z,26.97
2023-04-21T13:37:22.121Z,25.89
2023-04-21T13:40:10.095Z,24.83
2023-04-21T13:42:40.336Z,24.63
2023-04-21T13:45:14.125Z,24.27
2023-04-21T13:47:43.517Z,24.76
2023-04-21T13:50:12.823Z,25.96
2023-04-21T13:52:43.919Z,26.12
2023-04-21T13:55:13.203Z,25.22
2023-04-21T13:57:42.767Z,24.65
2023-04-21T14:00:15.345Z,24.78
2023-04-21T14:02:47.346Z,25.78
2023-04-21T14:05:16.458Z,26.56
2023-04-21T14:07:47.135Z,27.39
2023-04-21T14:10:20.196Z,28.01
2023-04-21T14:12:53.232Z,28.49
2023-04-21T14:15:24.550Z,29.09
2023-04-21T14:17:56.632Z,29.83
2023-04-21T14:20:26.000Z,29.90
2023-04-21T14:22:57.039Z,29.91
2023-04-21T14:25:35.055Z,29.31
2023-04-21T14:28:07.586Z,29.79
2023-04-21T14:30:37.695Z,30.14
2023-04-21T14:33:08.147Z,30.54
2023-04-21T14:35:39.559Z,29.97
2023-04-21T14:38:10.068Z,30.20
2023-04-21T14:40:38.781Z,30.04
2023-04-21T14:43:07.596Z,30.51
2023-04-21T14:45:36.790Z,29.67
2023-04-21T14:48:06.065Z,28.98
2023-04-21T14:50:35.075Z,28.73
2023-04-21T14:53:04.219Z,28.29
2023-04-21T14:55:35.025Z,28.37
2023-04-21T14:58:04.783Z,28.63
2023-04-21T15:00:35.102Z,28.50
2023-04-21T15:03:04.747Z,28.02
2023-04-21T15:05:34.829Z,27.26
2023-04-21T15:08:05.067Z,26.84
2023-04-21T15:10:35.635Z,26.87
2023-04-21T15:13:05.806Z,27.05
2023-04-21T15:15:35.953Z,26.99
2023-04-21T15:18:05.665Z,26.79
2023-04-21T15:20:44.603Z,26.67
2023-04-21T15:23:15.685Z,25.91
2023-04-21T15:25:46.427Z,25.49
2023-04-21T15:28:15.312Z,25.13
2023-04-21T15:30:44.690Z,24.84
2023-04-21T15:33:13.518Z,24.46
2023-04-21T15:35:43.428Z,24.39
2023-04-21T15:38:12.262Z,23.99
2023-04-21T15:40:53.213Z,23.64
2023-04-21T15:43:33.215Z,23.55
2023-04-21T15:46:03.321Z,23.47
2023-04-21T15:48:32.576Z,23.28
2023-04-21T15:51:01.517Z,23.21
2023-04-21T15:53:31.107Z,23.23
2023-04-21T15:56:00.918Z,23.08
2023-04-21T15:58:31.719Z,22.93
2023-04-21T16:01:00.801Z,22.52
2023-04-21T16:03:31.307Z,22.37
2023-04-21T16:06:00.800Z,22.00
2023-04-21T16:08:30.545Z,21.79
2023-04-21T16:10:59.320Z,21.79
2023-04-21T16:13:28.080Z,21.77
2023-04-21T16:15:58.502Z,21.74
2023-04-21T16:18:28.136Z,21.63
2023-04-21T16:20:57.240Z,21.68
2023-04-21T16:23:26.147Z,21.80
2023-04-21T16:25:55.323Z,22.09
2023-04-21T16:28:24.399Z,22.42
2023-04-21T16:30:53.787Z,22.40
2023-04-21T16:33:24.147Z,22.12
2023-04-21T16:35:54.231Z,21.99
2023-04-21T16:38:24.842Z,21.71
2023-04-21T16:40:53.723Z,21.35
2023-04-21T16:43:22.627Z,21.19
2023-04-21T16:45:51.793Z,20.99
2023-04-21T16:48:20.819Z,20.81
2023-04-21T16:50:54.081Z,20.76
2023-04-21T16:53:25.529Z,20.61
2023-04-21T16:55:54.878Z,20.48
2023-04-21T16:58:24.636Z,20.44
2023-04-21T17:00:54.687Z,20.37
2023-04-21T17:03:23.912Z,20.34
2023-04-21T17:05:54.479Z,20.30
2023-04-21T17:08:24.419Z,20.21
2023-04-21T17:10:55.515Z,20.02
2023-04-21T17:13:24.381Z,20.06
2023-04-21T17:15:55.463Z,19.96
2023-04-21T17:18:24.268Z,19.74
2023-04-21T17:20:54.985Z,19.76
2023-04-21T17:23:23.998Z,19.70
2023-04-21T17:25:53.873Z,19.61
2023-04-21T17:28:24.028Z,19.62
2023-04-21T17:31:00.245Z,19.59
2023-04-21T17:33:36.271Z,19.47
2023-04-21T17:36:10.120Z,19.48
2023-04-21T17:38:43.165Z,19.46
2023-04-21T17:41:20.068Z,19.43
2023-04-21T17:43:49.144Z,19.32
2023-04-21T17:46:18.037Z,19.28
2023-04-21T17:48:47.486Z,19.12
2023-04-21T17:51:19.421Z,19.13
2023-04-21T17:53:50.772Z,19.09
2023-04-21T17:56:25.645Z,19.02
2023-04-21T17:58:56.291Z,18.88
2023-04-21T18:01:25.578Z,18.86
2023-04-21T18:04:49.725Z,18.63
2023-04-21T18:07:28.392Z,18.62
2023-04-21T18:09:59.040Z,18.55
2023-04-21T18:12:28.549Z,18.48
2023-04-21T18:14:57.309Z,18.26
2023-04-21T18:17:27.583Z,18.25
2023-04-21T18:19:56.584Z,18.20
2023-04-21T18:22:28.045Z,18.03
2023-04-21T18:25:00.990Z,17.68
2023-04-21T18:27:34.898Z,17.73
2023-04-21T18:30:22.422Z,17.41
2023-04-21T18:32:53.274Z,17.38
2023-04-21T18:35:23.741Z,17.35
2023-04-21T18:37:55.538Z,17.16
2023-04-21T18:40:28.339Z,16.96
2023-04-21T18:43:27.002Z,17.00
2023-04-21T18:45:58.194Z,16.88
2023-04-21T18:48:29.838Z,16.75
2023-04-21T18:51:00.155Z,16.66
2023-04-21T18:53:33.722Z,16.59
2023-04-21T18:56:03.478Z,16.51
2023-04-21T18:58:32.432Z,16.29
2023-04-21T19:01:27.489Z,15.79
2023-04-21T19:03:56.984Z,15.84
2023-04-21T19:06:26.182Z,15.97
2023-04-21T19:08:58.749Z,15.68
2023-04-21T19:11:29.922Z,15.58
2023-04-21T19:14:00.741Z,15.70
2023-04-21T19:16:31.114Z,15.64
2023-04-21T19:19:02.380Z,15.59
2023-04-21T19:21:31.208Z,15.43
2023-04-21T19:24:01.348Z,15.04
2023-04-21T19:26:30.230Z,15.12
2023-04-21T19:28:58.963Z,15.23
2023-04-21T19:31:27.830Z,15.17
2023-04-21T19:33:56.562Z,14.99
2023-04-21T19:36:26.277Z,14.63
2023-04-21T19:38:56.608Z,14.52
2023-04-21T19:41:26.908Z,14.61
2023-04-21T19:43:55.711Z,14.65
2023-04-21T19:46:24.879Z,14.63
2023-04-21T19:48:53.787Z,14.66
2023-04-21T19:51:23.834Z,14.66
2023-04-21T19:54:10.043Z,14.40
2023-04-21T19:56:41.724Z,14.38
2023-04-21T19:59:10.447Z,14.04
2023-04-21T20:01:39.683Z,14.05
2023-04-21T20:04:11.033Z,14.20
2023-04-21T20:06:41.634Z,14.14
2023-04-21T20:09:14.775Z,14.15
2023-04-21T20:11:45.219Z,14.19
2023-04-21T20:14:15.284Z,14.15
2023-04-21T20:16:46.189Z,13.98
2023-04-21T20:19:17.448Z,14.02
2023-04-21T20:21:49.099Z,14.00
2023-04-21T20:24:18.027Z,13.95
2023-04-21T20:26:48.254Z,13.84
2023-04-21T20:29:17.331Z,13.58
2023-04-21T20:31:46.462Z,13.40
2023-04-21T20:34:15.193Z,13.23
2023-04-21T20:36:44.866Z,13.14
2023-04-21T20:39:14.436Z,13.06
2023-04-21T20:41:45.764Z,12.83
2023-04-21T20:44:16.910Z,12.93
2023-04-21T20:46:46.099Z,12.68
2023-04-21T20:49:15.178Z,12.67
2023-04-21T20:51:43.812Z,12.60
2023-04-21T20:54:12.519Z,12.79
2023-04-21T20:56:41.310Z,12.60
2023-04-21T20:59:10.102Z,12.66
2023-04-21T21:01:41.421Z,12.70
2023-04-21T21:04:10.250Z,12.75
2023-04-21T21:06:39.572Z,12.70
2023-04-21T21:09:09.021Z,12.52
2023-04-21T21:11:37.826Z,12.26
2023-04-21T21:14:06.540Z,12.42
2023-04-21T21:16:35.372Z,12.26
2023-04-21T21:19:05.579Z,11.97
2023-04-21T21:21:34.322Z,11.70
2023-04-21T21:24:03.071Z,11.50
2023-04-21T21:26:31.832Z,11.35
2023-04-21T21:29:00.536Z,11.22
2023-04-21T21:31:29.640Z,11.38
2023-04-21T21:33:59.008Z,11.15
2023-04-21T21:36:29.327Z,10.96
2023-04-21T21:38:58.017Z,11.07
2023-04-21T21:41:26.784Z,11.01
2023-04-21T21:43:55.477Z,11.10
2023-04-21T21:46:24.431Z,11.32
2023-04-21T21:48:53.247Z,11.34
2023-04-21T21:51:22.044Z,11.08
2023-04-21T21:53:52.172Z,10.82
2023-04-21T21:56:21.468Z,10.66
2023-04-21T21:58:50.239Z,10.66
2023-04-21T22:01:19.270Z,10.52
2023-04-21T22:03:48.411Z,10.51
2023-04-21T22:06:18.813Z,10.75
2023-04-21T22:08:47.642Z,10.88
2023-04-21T22:11:17.923Z,11.00
2023-04-21T22:13:46.800Z,10.96
2023-04-21T22:16:16.616Z,10.92
2023-04-21T22:18:47.261Z,10.51
2023-04-21T22:21:16.156Z,10.19
2023-04-21T22:23:45.116Z,10.30
2023-04-21T22:26:13.910Z,10.50
2023-04-21T22:28:44.050Z,10.44
2023-04-21T22:31:12.915Z,10.54
2023-04-21T22:33:41.707Z,10.30
2023-04-21T22:36:12.571Z,10.38
2023-04-21T22:38:43.623Z,10.53
2023-04-21T22:41:12.499Z,10.24
2023-04-21T22:43:41.314Z,9.94
2023-04-21T22:46:11.793Z,10.08
2023-04-21T22:48:40.590Z,10.06
2023-04-21T22:51:09.330Z,10.24
2023-04-21T22:53:38.021Z,10.32
2023-04-21T22:56:07.610Z,10.23
2023-04-21T22:58:36.368Z,10.34
2023-04-21T23:01:05.176Z,10.30
2023-04-21T23:03:35.697Z,10.22
2023-04-21T23:06:04.714Z,10.01
2023-04-21T23:08:33.479Z,9.68
2023-04-21T23:11:04.211Z,9.59
2023-04-21T23:13:33.767Z,9.59
2023-04-21T23:16:02.673Z,9.55
2023-04-21T23:18:31.439Z,9.50
2023-04-21T23:21:01.724Z,9.26
2023-04-21T23:23:30.579Z,9.20
2023-04-21T23:25:59.369Z,9.47
2023-04-21T23:28:28.253Z,9.43
2023-04-21T23:30:57.064Z,9.37
2023-04-21T23:33:26.091Z,9.14
2023-04-21T23:35:56.229Z,9.29
2023-04-21T23:38:27.033Z,9.46
2023-04-21T23:40:55.799Z,9.62
2023-04-21T23:43:24.622Z,9.56
2023-04-21T23:45:53.646Z,9.32
2023-04-21T23:48:22.481Z,9.34
2023-04-21T23:50:51.269Z,9.29
2023-04-21T23:53:26.059Z,9.26
2023-04-21T23:55:55.066Z,9.38
2023-04-21T23:58:23.791Z,9.51
